Sunbury, PA

8:25 AM EDT on July 06, 2015 (GMT -0400)
KPASUNBU2 | | Change Station
CLOSE
Current Station
Personal Weather Station
Location: Sunbury, PA
Elevation: 508 ft
Nearby Weather Stations

Elev 508 ft 40.86 °N, 76.78 °W | Updated 10 seconds ago

Overcast
Overcast
70.2 °F
Feels Like 76 °F
N
0.7
Wind Variable Wind from ESE
Gusts 3.1 mph

Today
High -- | Low -- °F
--% Chance of Precip.
Yesterday
High -- | Low -- °F
Precip. -- in
5:41 AM 8:41 PM
Waning Gibbous, 76% visible
Pressure 30.15 in
Visibility 6.0 miles
Clouds Few 1800 ft
Mostly Cloudy 2500 ft
Mostly Cloudy 3400 ft
Heat Index 76 °F
Dew Point 57 °F
Humidity 62%
Rainfall 0.00 in
Snow Depth Not available.
UV 1 out of 12
Pollen 3.00 out of 12
Air Quality Not available.
Flu Activity Not available.
METAR KSEG 061153Z AUTO 33003KT 6SM BR FEW018 BKN025 BKN034 21/19 A3016 RMK AO2 SLP209 T02060189 10206 20183 53006

More Conditions Fewer Conditions

Pressure 30.15 in
Visibility 6.0 miles
Clouds Few 1800 ft
Mostly Cloudy 2500 ft
Mostly Cloudy 3400 ft
Heat Index 76 °F
Dew Point 57 °F
Humidity 62%
Rainfall 0.00 in
Snow Depth Not available.
UV 1 out of 12
Pollen 3.00 out of 12
Air Quality Not available.
Flu Activity Not available.
METAR KSEG 061153Z AUTO 33003KT 6SM BR FEW018 BKN025 BKN034 21/19 A3016 RMK AO2 SLP209 T02060189 10206 20183 53006

More Conditions Fewer Conditions

10-Day Weather Forecast

×

Almanac

Astronomy

Jul. 06, 2015 Rise Set
Actual Time
Civil Twilight
Nautical Twilight
Astronomical Twilight
Moon
Length of Visible Light
Length of Day
Tomorrow will be .
, % of the Moon is Illuminated

Today's Extremes

State Highs State Lows

Community

WunderPhotos

Upload Photos

1,835,545 photos uploaded!

WunderBlogs® & News

Nearby

Air Quality

  Air Quality AQ Index Pollutant
Not available.

Snow Depth

Station Depth Elevation

Earthquake Activity

City Distance Mag. Time & Date
Minimum magnitude displayed is 2.5.

Coastal Water Temperatures

Place Temperature

Stations

Nearby Weather Stations

Station Location Temp. Windchill Dew Point Humidity Wind Precip. Elev Updated Type